Terminal Aerodrome Forecast
Issued by NWS Huntsville, AL

Home | Current Version | Previous Version | Text Only | Print | Product List | Glossary On
Versions: 1 2 3 4 5 6 7 8 9 10 11 12
000
FTUS44 KHUN 151720
TAFMSL
TAF
KMSL 151720Z 1518/1618 32009KT P6SM SCT030 BKN050
     FM152300 VRB03KT P6SM SKC
     FM161500 19007KT P6SM SKC=

USA.gov is the U.S. government's official web portal to all federal, state and local government web resources and services.